createdAt,value
2019-03-19T00:00:33.702Z,97256.53
2019-03-19T00:01:37.368Z,97256.73
2019-03-19T00:02:40.998Z,97262.70
2019-03-19T00:03:44.628Z,97261.89
2019-03-19T00:04:48.259Z,97256.39
2019-03-19T00:05:51.896Z,97260.08
2019-03-19T00:06:55.567Z,97263.09
2019-03-19T00:07:59.208Z,97253.10
2019-03-19T00:09:03.131Z,97258.94
2019-03-19T00:10:08.952Z,97251.84
2019-03-19T00:11:12.599Z,97253.77
2019-03-19T00:12:16.680Z,97256.00
2019-03-19T00:13:20.380Z,97252.85
2019-03-19T00:14:24.026Z,97256.20
2019-03-19T00:15:27.654Z,97255.89
2019-03-19T00:16:31.364Z,97258.02
2019-03-19T00:17:34.960Z,97258.02
2019-03-19T00:18:38.580Z,97256.90
2019-03-19T00:19:42.208Z,97255.67
2019-03-19T00:20:45.755Z,97262.95
2019-03-19T00:21:49.394Z,97261.38
2019-03-19T00:22:53.051Z,97262.48
2019-03-19T00:23:56.614Z,97260.70
2019-03-19T00:25:00.406Z,97260.70
2019-03-19T00:26:04.123Z,97263.16
2019-03-19T00:27:07.766Z,97257.53
2019-03-19T00:28:11.431Z,97259.31
2019-03-19T00:29:15.168Z,97261.23
2019-03-19T00:30:19.272Z,97257.77
2019-03-19T00:31:22.892Z,97254.86
2019-03-19T00:32:26.456Z,97251.97
2019-03-19T00:33:30.127Z,97255.44
2019-03-19T00:34:33.752Z,97255.44
2019-03-19T00:35:37.386Z,97252.75
2019-03-19T00:36:41.014Z,97261.14
2019-03-19T00:37:44.653Z,97260.91
2019-03-19T00:38:48.248Z,97259.69
2019-03-19T00:39:51.872Z,97259.77
2019-03-19T00:40:55.511Z,97259.77
2019-03-19T00:41:59.142Z,97262.46
2019-03-19T00:43:02.776Z,97257.31
2019-03-19T00:44:06.511Z,97257.30
2019-03-19T00:45:12.145Z,97254.17
2019-03-19T00:46:15.791Z,97254.61
2019-03-19T00:47:19.522Z,97259.98
2019-03-19T00:48:23.154Z,97249.00
2019-03-19T00:49:26.747Z,97254.81
2019-03-19T00:50:30.381Z,97259.25
2019-03-19T00:51:34.059Z,97259.25
2019-03-19T00:52:38.015Z,97254.64
2019-03-19T00:53:41.648Z,97248.03
2019-03-19T00:54:45.313Z,97255.31
2019-03-19T00:55:48.967Z,97251.36
2019-03-19T00:56:52.605Z,97251.36
2019-03-19T00:57:56.230Z,97253.30
2019-03-19T00:58:59.859Z,97251.36
2019-03-19T01:00:04.976Z,97249.34
2019-03-19T01:01:08.629Z,97251.16
2019-03-19T01:02:12.267Z,97252.50
2019-03-19T01:03:15.887Z,97245.75
2019-03-19T01:04:19.512Z,97250.45
2019-03-19T01:05:23.185Z,97246.95
2019-03-19T01:06:26.822Z,97246.95
2019-03-19T01:07:30.452Z,97251.66
2019-03-19T01:08:34.568Z,97254.25
2019-03-19T01:09:38.272Z,97251.81
2019-03-19T01:10:41.852Z,97251.81
2019-03-19T01:11:45.493Z,97251.17
2019-03-19T01:12:49.147Z,97249.80
2019-03-19T01:13:52.752Z,97256.12
2019-03-19T01:14:56.359Z,97256.12
2019-03-19T01:16:00.001Z,97245.77
2019-03-19T01:17:03.743Z,97262.55
2019-03-19T01:18:07.443Z,97262.55
2019-03-19T01:19:11.069Z,97261.21
2019-03-19T01:20:16.469Z,97268.95
2019-03-19T01:21:20.136Z,97258.17
2019-03-19T01:22:23.779Z,97258.29
2019-03-19T01:23:27.345Z,97258.29
2019-03-19T01:24:30.981Z,97260.19
2019-03-19T01:25:35.177Z,97256.89
2019-03-19T01:26:39.037Z,97256.89
2019-03-19T01:27:42.672Z,97261.17
2019-03-19T01:28:46.308Z,97264.23
2019-03-19T01:29:49.955Z,97261.66
2019-03-19T01:30:53.599Z,97252.58
2019-03-19T01:31:57.274Z,97252.58
2019-03-19T01:33:00.906Z,97263.13
2019-03-19T01:34:04.540Z,97255.81
2019-03-19T01:35:08.375Z,97254.35
2019-03-19T01:36:12.008Z,97260.83
2019-03-19T01:37:15.679Z,97260.54
2019-03-19T01:38:19.314Z,97267.05
2019-03-19T01:39:23.038Z,97273.03
2019-03-19T01:40:26.745Z,97273.03
2019-03-19T01:41:30.503Z,97271.70
2019-03-19T01:42:34.170Z,97266.09
2019-03-19T01:43:37.806Z,97264.30
2019-03-19T01:44:41.513Z,97271.87
2019-03-19T01:45:45.189Z,97281.98
2019-03-19T01:46:48.820Z,97280.83
2019-03-19T01:47:52.495Z,97282.17
2019-03-19T01:48:56.153Z,97271.63
2019-03-19T01:49:59.795Z,97271.63
2019-03-19T01:51:03.432Z,97281.69
2019-03-19T01:52:07.064Z,97282.25
2019-03-19T01:53:10.733Z,97285.03
2019-03-19T01:54:14.368Z,97280.72
2019-03-19T01:55:18.001Z,97288.70
2019-03-19T01:56:21.630Z,97288.16
2019-03-19T01:57:25.282Z,97288.16
2019-03-19T01:58:28.890Z,97279.97
2019-03-19T01:59:32.521Z,97286.02
2019-03-19T02:00:36.146Z,97285.58
2019-03-19T02:01:39.788Z,97279.60
2019-03-19T02:02:43.360Z,97279.60
2019-03-19T02:03:47.027Z,97283.94
2019-03-19T02:04:50.657Z,97283.94
2019-03-19T02:05:54.296Z,97287.17
2019-03-19T02:06:58.010Z,97287.72
2019-03-19T02:08:01.567Z,97289.61
2019-03-19T02:09:08.276Z,97287.72
2019-03-19T02:10:13.311Z,97287.72
2019-03-19T02:11:18.512Z,97277.63
2019-03-19T02:12:22.082Z,97296.05
2019-03-19T02:13:25.714Z,97296.05
2019-03-19T02:14:29.797Z,97289.52
2019-03-19T02:15:33.428Z,97290.65
2019-03-19T02:16:37.118Z,97295.19
2019-03-19T02:17:40.933Z,97295.19
2019-03-19T02:18:44.612Z,97292.06
2019-03-19T02:19:48.293Z,97297.05
2019-03-19T02:20:51.926Z,97297.05
2019-03-19T02:21:55.571Z,97298.62
2019-03-19T02:22:59.591Z,97298.62
2019-03-19T02:24:03.243Z,97302.41
2019-03-19T02:25:09.234Z,97307.29
2019-03-19T02:26:16.808Z,97305.50
2019-03-19T02:27:18.227Z,97305.50
2019-03-19T02:28:21.784Z,97297.63
2019-03-19T02:29:25.343Z,97297.63
2019-03-19T02:30:28.999Z,97301.16
2019-03-19T02:31:32.621Z,97301.16
2019-03-19T02:32:36.258Z,97298.10
2019-03-19T02:33:39.888Z,97302.59
2019-03-19T02:34:43.559Z,97304.73
2019-03-19T02:35:47.431Z,97303.30
2019-03-19T02:36:51.070Z,97304.40
2019-03-19T02:37:54.740Z,97302.89
2019-03-19T02:38:58.375Z,97303.14
2019-03-19T02:40:02.034Z,97303.14
2019-03-19T02:41:05.664Z,97298.97
2019-03-19T02:42:09.310Z,97301.31
2019-03-19T02:43:12.939Z,97301.31
2019-03-19T02:44:16.658Z,97302.20
2019-03-19T02:45:20.284Z,97296.91
2019-03-19T02:46:24.340Z,97309.75
2019-03-19T02:47:27.977Z,97309.75
2019-03-19T02:48:31.611Z,97307.08
2019-03-19T02:49:35.254Z,97312.59
2019-03-19T02:50:38.990Z,97312.59
2019-03-19T02:51:42.626Z,97311.91
2019-03-19T02:52:46.505Z,97313.95
2019-03-19T02:53:50.178Z,97313.95
2019-03-19T02:54:53.814Z,97316.87
2019-03-19T02:55:57.438Z,97319.76
2019-03-19T02:57:01.104Z,97316.32
2019-03-19T02:58:05.010Z,97314.02
2019-03-19T02:59:08.746Z,97318.59
2019-03-19T03:00:19.627Z,97312.05
2019-03-19T03:01:23.217Z,97312.05
2019-03-19T03:02:26.857Z,97313.09
2019-03-19T03:03:30.481Z,97313.09
2019-03-19T03:04:34.117Z,97312.27
2019-03-19T03:05:37.751Z,97312.27
2019-03-19T03:06:41.382Z,97318.11
2019-03-19T03:07:45.863Z,97326.69
2019-03-19T03:08:49.480Z,97324.41
2019-03-19T03:09:53.113Z,97326.59
2019-03-19T03:10:56.819Z,97330.16
2019-03-19T03:12:00.452Z,97329.52
2019-03-19T03:13:04.454Z,97329.70
2019-03-19T03:14:08.157Z,97330.48
2019-03-19T03:15:15.962Z,97329.16
2019-03-19T03:16:19.586Z,97333.37
2019-03-19T03:17:23.224Z,97334.50
2019-03-19T03:18:27.224Z,97330.61
2019-03-19T03:19:30.855Z,97332.68
2019-03-19T03:20:34.501Z,97333.17
2019-03-19T03:21:38.071Z,97330.24
2019-03-19T03:22:41.686Z,97330.48
2019-03-19T03:23:45.719Z,97326.47
2019-03-19T03:24:49.346Z,97331.58
2019-03-19T03:25:52.980Z,97328.02
2019-03-19T03:26:56.621Z,97328.02
2019-03-19T03:28:00.258Z,97328.02
2019-03-19T03:29:03.933Z,97325.13
2019-03-19T03:30:13.220Z,97325.13
2019-03-19T03:31:16.915Z,97324.65
2019-03-19T03:32:20.542Z,97324.65
2019-03-19T03:33:24.285Z,97329.27
2019-03-19T03:34:27.934Z,97330.95
2019-03-19T03:35:31.568Z,97328.33
2019-03-19T03:36:35.191Z,97328.72
2019-03-19T03:37:38.826Z,97331.20
2019-03-19T03:38:42.469Z,97332.19
2019-03-19T03:39:46.129Z,97331.59
2019-03-19T03:40:49.925Z,97335.55
2019-03-19T03:41:53.553Z,97327.68
2019-03-19T03:42:57.262Z,97329.97
2019-03-19T03:44:01.364Z,97322.33
2019-03-19T03:45:07.962Z,97332.40
2019-03-19T03:46:11.597Z,97341.77
2019-03-19T03:47:15.240Z,97344.84
2019-03-19T03:48:18.881Z,97341.91
2019-03-19T03:49:22.516Z,97345.92
2019-03-19T03:50:26.171Z,97347.76
2019-03-19T03:51:29.806Z,97349.55
2019-03-19T03:52:33.440Z,97349.55
2019-03-19T03:53:37.078Z,97350.97
2019-03-19T03:54:40.700Z,97353.16
2019-03-19T03:55:44.365Z,97353.16
2019-03-19T03:57:01.399Z,97351.81
2019-03-19T03:57:53.356Z,97356.46
2019-03-19T03:59:01.101Z,97360.72
2019-03-19T04:00:02.433Z,97355.16
2019-03-19T04:01:06.102Z,97358.69
2019-03-19T04:02:09.744Z,97359.95
2019-03-19T04:03:13.370Z,97361.72
2019-03-19T04:04:16.997Z,97358.64
2019-03-19T04:05:20.618Z,97365.71
2019-03-19T04:06:24.303Z,97356.34
2019-03-19T04:07:27.923Z,97357.05
2019-03-19T04:08:31.472Z,97361.56
2019-03-19T04:09:35.220Z,97366.17
2019-03-19T04:10:39.137Z,97366.91
2019-03-19T04:11:42.794Z,97368.30
2019-03-19T04:12:46.643Z,97370.81
2019-03-19T04:13:50.268Z,97366.30
2019-03-19T04:14:53.899Z,97370.07
2019-03-19T04:15:57.535Z,97367.94
2019-03-19T04:17:01.199Z,97367.94
2019-03-19T04:18:05.413Z,97371.73
2019-03-19T04:19:09.192Z,97371.24
2019-03-19T04:20:14.111Z,97370.45
2019-03-19T04:21:17.805Z,97369.20
2019-03-19T04:22:21.477Z,97369.95
2019-03-19T04:23:25.118Z,97373.39
2019-03-19T04:24:29.049Z,97373.39
2019-03-19T04:25:32.679Z,97369.67
2019-03-19T04:26:36.308Z,97377.53
2019-03-19T04:27:40.869Z,97377.53
2019-03-19T04:28:44.785Z,97370.00
2019-03-19T04:29:48.422Z,97383.84
2019-03-19T04:30:52.051Z,97380.08
2019-03-19T04:31:55.669Z,97377.65
2019-03-19T04:32:59.354Z,97380.56
2019-03-19T04:34:03.001Z,97381.03
2019-03-19T04:35:07.433Z,97379.53
2019-03-19T04:36:11.060Z,97378.91
2019-03-19T04:37:15.536Z,97382.62
2019-03-19T04:38:19.495Z,97382.56
2019-03-19T04:39:23.465Z,97382.23
2019-03-19T04:40:27.112Z,97383.58
2019-03-19T04:41:30.744Z,97387.20
2019-03-19T04:42:34.453Z,97382.48
2019-03-19T04:43:38.080Z,97385.67
2019-03-19T04:44:41.796Z,97393.69
2019-03-19T04:45:45.463Z,97393.27
2019-03-19T04:46:49.096Z,97398.89
2019-03-19T04:47:52.772Z,97396.50
2019-03-19T04:48:56.523Z,97405.64
2019-03-19T04:50:00.498Z,97406.00
2019-03-19T04:51:04.233Z,97409.03
2019-03-19T04:52:07.928Z,97409.49
2019-03-19T04:53:11.667Z,97415.33
2019-03-19T04:54:15.292Z,97418.15
2019-03-19T04:55:18.927Z,97417.19
2019-03-19T04:56:22.566Z,97415.28
2019-03-19T04:57:27.281Z,97420.08
2019-03-19T04:58:32.402Z,97413.86
2019-03-19T04:59:36.741Z,97414.32
2019-03-19T05:00:40.385Z,97415.23
2019-03-19T05:01:44.013Z,97421.91
2019-03-19T05:02:47.664Z,97424.20
2019-03-19T05:03:51.306Z,97419.89
2019-03-19T05:04:55.012Z,97425.16
2019-03-19T05:05:59.632Z,97427.23
2019-03-19T05:07:03.737Z,97431.60
2019-03-19T05:08:07.357Z,97429.66
2019-03-19T05:09:13.048Z,97427.75
2019-03-19T05:10:18.625Z,97432.08
2019-03-19T05:11:22.260Z,97438.36
2019-03-19T05:12:27.446Z,97441.38
2019-03-19T05:13:32.547Z,97441.13
2019-03-19T05:14:36.137Z,97439.41
2019-03-19T05:15:39.828Z,97441.81
2019-03-19T05:16:43.886Z,97447.08
2019-03-19T05:17:47.514Z,97449.39
2019-03-19T05:18:51.151Z,97452.63
2019-03-19T05:19:54.868Z,97448.70
2019-03-19T05:20:58.887Z,97446.36
2019-03-19T05:22:02.528Z,97447.34
2019-03-19T05:23:06.276Z,97450.22
2019-03-19T05:24:09.910Z,97454.52
2019-03-19T05:25:13.603Z,97450.81
2019-03-19T05:26:17.393Z,97461.77
2019-03-19T05:27:21.024Z,97458.77
2019-03-19T05:28:24.681Z,97460.00
2019-03-19T05:29:28.311Z,97461.47
2019-03-19T05:30:32.075Z,97459.62
2019-03-19T05:31:35.705Z,97462.37
2019-03-19T05:32:39.342Z,97460.59
2019-03-19T05:33:43.055Z,97461.88
2019-03-19T05:34:46.757Z,97466.64
2019-03-19T05:35:50.419Z,97464.25
2019-03-19T05:36:53.980Z,97463.97
2019-03-19T05:37:57.542Z,97466.72
2019-03-19T05:39:01.319Z,97466.64
2019-03-19T05:40:08.048Z,97468.95
2019-03-19T05:41:12.009Z,97467.26
2019-03-19T05:42:15.644Z,97473.05
2019-03-19T05:43:19.279Z,97470.55
2019-03-19T05:44:22.912Z,97467.28
2019-03-19T05:45:26.549Z,97472.69
2019-03-19T05:46:30.209Z,97471.34
2019-03-19T05:47:37.490Z,97469.95
2019-03-19T05:48:39.603Z,97475.80
2019-03-19T05:49:43.233Z,97470.41
2019-03-19T05:50:46.930Z,97470.56
2019-03-19T05:51:50.672Z,97474.72
2019-03-19T05:52:54.313Z,97475.23
2019-03-19T05:53:57.882Z,97481.65
2019-03-19T05:55:01.615Z,97482.03
2019-03-19T05:56:05.255Z,97483.90
2019-03-19T05:57:08.918Z,97482.70
2019-03-19T05:58:12.642Z,97481.90
2019-03-19T05:59:16.196Z,97482.39
2019-03-19T06:00:22.004Z,97483.02
2019-03-19T06:01:25.963Z,97478.59
2019-03-19T06:02:29.628Z,97482.23
2019-03-19T06:03:33.557Z,97482.81
2019-03-19T06:04:37.193Z,97485.25
2019-03-19T06:05:40.897Z,97482.43
2019-03-19T06:06:44.613Z,97481.01
2019-03-19T06:07:48.300Z,97482.11
2019-03-19T06:08:51.920Z,97481.91
2019-03-19T06:09:55.553Z,97483.93
2019-03-19T06:10:59.189Z,97484.03
2019-03-19T06:12:02.826Z,97481.59
2019-03-19T06:13:06.501Z,97488.62
2019-03-19T06:14:10.137Z,97484.32
2019-03-19T06:15:14.673Z,97481.59
2019-03-19T06:16:18.308Z,97481.26
2019-03-19T06:17:21.870Z,97486.50
2019-03-19T06:18:34.592Z,97486.91
2019-03-19T06:19:30.809Z,97480.25
2019-03-19T06:20:34.527Z,97482.12
2019-03-19T06:21:38.159Z,97483.84
2019-03-19T06:22:41.812Z,97485.06
2019-03-19T06:23:45.471Z,97492.05
2019-03-19T06:24:49.679Z,97492.73
2019-03-19T06:25:53.319Z,97484.66
2019-03-19T06:26:56.943Z,97494.45
2019-03-19T06:28:01.073Z,97487.39
2019-03-19T06:29:05.017Z,97487.56
2019-03-19T06:30:22.312Z,97492.69
2019-03-19T06:31:25.956Z,97490.30
2019-03-19T06:32:29.594Z,97486.72
2019-03-19T06:33:33.217Z,97492.61
2019-03-19T06:34:36.881Z,97490.84
2019-03-19T06:35:40.519Z,97488.59
2019-03-19T06:36:44.154Z,97502.64
2019-03-19T06:37:47.809Z,97492.61
2019-03-19T06:38:51.453Z,97490.55
2019-03-19T06:39:55.104Z,97490.91
2019-03-19T06:40:58.738Z,97490.42
2019-03-19T06:42:02.461Z,97492.96
2019-03-19T06:43:06.100Z,97495.64
2019-03-19T06:44:09.732Z,97491.25
2019-03-19T06:45:21.781Z,97498.85
2019-03-19T06:46:25.416Z,97498.59
2019-03-19T06:47:29.052Z,97500.21
2019-03-19T06:48:32.688Z,97501.36
2019-03-19T06:49:36.627Z,97501.89
2019-03-19T06:50:45.061Z,97504.33
2019-03-19T06:51:45.659Z,97505.57
2019-03-19T06:52:49.308Z,97501.08
2019-03-19T06:53:52.945Z,97500.53
2019-03-19T06:54:56.575Z,97499.92
2019-03-19T06:56:00.262Z,97501.66
2019-03-19T06:57:04.224Z,97501.72
2019-03-19T06:58:11.330Z,97508.13
2019-03-19T06:59:13.558Z,97508.13
2019-03-19T07:00:24.130Z,97498.67
2019-03-19T07:01:27.795Z,97495.27
2019-03-19T07:02:31.436Z,97495.27
2019-03-19T07:03:35.010Z,97500.06
2019-03-19T07:04:38.641Z,97498.72
2019-03-19T07:05:42.363Z,97502.61
2019-03-19T07:06:45.964Z,97495.41
2019-03-19T07:07:49.610Z,97495.41
2019-03-19T07:08:53.310Z,97496.06
2019-03-19T07:09:56.992Z,97499.06
2019-03-19T07:11:00.582Z,97494.83
2019-03-19T07:12:04.258Z,97493.33
2019-03-19T07:13:07.896Z,97499.70
2019-03-19T07:14:11.607Z,97500.98
2019-03-19T07:15:18.987Z,97500.98
2019-03-19T07:16:22.645Z,97494.50
2019-03-19T07:17:26.317Z,97494.50
2019-03-19T07:18:29.944Z,97494.49
2019-03-19T07:19:33.656Z,97503.27
2019-03-19T07:20:37.295Z,97505.60
2019-03-19T07:21:40.944Z,97500.53
2019-03-19T07:22:44.679Z,97498.55
2019-03-19T07:23:59.239Z,97501.55
2019-03-19T07:25:03.218Z,97501.83
2019-03-19T07:26:07.188Z,97500.50
2019-03-19T07:27:10.821Z,97500.30
2019-03-19T07:28:22.055Z,97503.97
2019-03-19T07:29:19.860Z,97500.17
2019-03-19T07:30:25.575Z,97495.45
2019-03-19T07:31:31.087Z,97497.03
2019-03-19T07:32:34.588Z,97501.28
2019-03-19T07:33:56.508Z,97504.00
2019-03-19T07:35:05.156Z,97497.68
2019-03-19T07:36:30.163Z,97490.39
2019-03-19T07:37:34.194Z,97490.48
2019-03-19T07:38:37.836Z,97487.91
2019-03-19T07:39:41.508Z,97494.66
2019-03-19T07:40:45.254Z,97487.28
2019-03-19T07:41:48.891Z,97487.28
2019-03-19T07:42:52.532Z,97478.98
2019-03-19T07:43:56.194Z,97480.62
2019-03-19T07:44:59.900Z,97484.14
2019-03-19T07:46:03.542Z,97487.39
2019-03-19T07:47:07.187Z,97485.76
2019-03-19T07:48:10.836Z,97479.87
2019-03-19T07:49:14.459Z,97480.87
2019-03-19T07:50:19.337Z,97481.06
2019-03-19T07:51:22.972Z,97477.56
2019-03-19T07:52:26.603Z,97475.67
2019-03-19T07:53:30.254Z,97470.98
2019-03-19T07:54:33.905Z,97475.89
2019-03-19T07:55:37.596Z,97474.39
2019-03-19T07:56:41.175Z,97480.08
2019-03-19T07:57:44.814Z,97475.41
2019-03-19T07:58:48.511Z,97480.74
2019-03-19T07:59:52.152Z,97476.16
2019-03-19T08:00:55.817Z,97474.71
2019-03-19T08:01:59.758Z,97472.88
2019-03-19T08:03:03.330Z,97475.29
2019-03-19T08:04:06.962Z,97477.06
2019-03-19T08:05:11.300Z,97480.63
2019-03-19T08:06:14.969Z,97472.03
2019-03-19T08:07:18.942Z,97470.83
2019-03-19T08:08:22.652Z,97475.12
2019-03-19T08:09:26.396Z,97471.02
2019-03-19T08:10:30.013Z,97472.57
2019-03-19T08:11:33.685Z,97477.20
2019-03-19T08:12:37.317Z,97472.85
2019-03-19T08:13:40.960Z,97468.04
2019-03-19T08:14:44.523Z,97469.19
2019-03-19T08:15:48.154Z,97466.91
2019-03-19T08:16:53.298Z,97463.55
2019-03-19T08:17:57.036Z,97463.00
2019-03-19T08:19:00.677Z,97464.37
2019-03-19T08:20:06.715Z,97461.89
2019-03-19T08:21:10.383Z,97463.12
2019-03-19T08:22:14.058Z,97458.58
2019-03-19T08:23:17.693Z,97463.22
2019-03-19T08:24:22.550Z,97461.78
2019-03-19T08:25:26.188Z,97457.14
2019-03-19T08:26:29.823Z,97455.41
2019-03-19T08:27:33.483Z,97454.06
2019-03-19T08:28:37.161Z,97454.23
2019-03-19T08:29:40.754Z,97449.51
2019-03-19T08:30:44.398Z,97448.33
2019-03-19T08:31:48.641Z,97450.97
2019-03-19T08:32:52.315Z,97449.75
2019-03-19T08:34:00.240Z,97452.46
2019-03-19T08:35:04.156Z,97442.30
2019-03-19T08:36:09.498Z,97447.33
2019-03-19T08:40:24.679Z,97444.78
2019-03-19T08:42:58.097Z,97454.41
2019-03-19T08:44:01.137Z,97446.27
2019-03-19T08:45:09.107Z,97446.89
2019-03-19T08:49:14.397Z,97447.19
2019-03-19T08:50:21.253Z,97443.20
2019-03-19T08:51:24.845Z,97442.35
2019-03-19T08:52:28.492Z,97439.95
2019-03-19T08:53:33.702Z,97435.02
2019-03-19T08:54:37.329Z,97433.36
2019-03-19T08:55:42.183Z,97432.90
2019-03-19T08:56:45.833Z,97427.22
2019-03-19T08:57:50.536Z,97432.92
2019-03-19T08:58:54.102Z,97428.95
2019-03-19T08:59:57.832Z,97429.16
2019-03-19T09:01:01.507Z,97424.16
2019-03-19T09:02:05.268Z,97424.16
2019-03-19T09:03:09.751Z,97421.84
2019-03-19T09:04:14.854Z,97424.98
2019-03-19T09:05:18.498Z,97427.23
2019-03-19T09:06:22.168Z,97422.27
2019-03-19T09:07:25.877Z,97418.34
2019-03-19T09:08:30.758Z,97417.30
2019-03-19T09:09:34.388Z,97414.16
2019-03-19T09:10:37.836Z,97414.75
2019-03-19T09:11:41.495Z,97421.34
2019-03-19T09:12:45.234Z,97416.14
2019-03-19T09:13:48.873Z,97412.33
2019-03-19T09:14:52.500Z,97410.22
2019-03-19T09:15:56.134Z,97413.56
2019-03-19T09:16:59.809Z,97411.69
2019-03-19T09:18:03.886Z,97411.22
2019-03-19T09:19:07.522Z,97405.14
2019-03-19T09:20:17.796Z,97405.92
2019-03-19T09:21:21.428Z,97403.69
2019-03-19T09:22:29.638Z,97400.66
2019-03-19T09:23:30.464Z,97404.98
2019-03-19T09:24:34.115Z,97397.48
2019-03-19T09:25:37.751Z,97404.20
2019-03-19T09:26:41.398Z,97394.52
2019-03-19T09:27:45.071Z,97398.38
2019-03-19T09:28:48.708Z,97393.05
2019-03-19T09:29:52.437Z,97390.56
2019-03-19T09:30:56.082Z,97396.19
2019-03-19T09:31:59.650Z,97389.45
2019-03-19T09:33:03.329Z,97389.70
2019-03-19T09:34:07.337Z,97387.25
2019-03-19T09:35:11.190Z,97385.86
2019-03-19T09:36:14.896Z,97385.76
2019-03-19T09:37:18.537Z,97383.56
2019-03-19T09:38:22.515Z,97386.06
2019-03-19T09:39:26.157Z,97379.83
2019-03-19T09:40:29.811Z,97385.96
2019-03-19T09:41:33.438Z,97385.77
2019-03-19T09:42:37.079Z,97378.29
2019-03-19T09:43:40.742Z,97378.40
2019-03-19T09:44:44.710Z,97379.95
2019-03-19T09:45:49.783Z,97382.73
2019-03-19T09:46:53.420Z,97375.63
2019-03-19T09:47:57.067Z,97381.44
2019-03-19T09:49:00.804Z,97374.19
2019-03-19T09:50:07.055Z,97372.41
2019-03-19T09:51:10.720Z,97371.64
2019-03-19T09:52:14.358Z,97379.14
2019-03-19T09:53:18.856Z,97372.62
2019-03-19T09:54:22.661Z,97373.11
2019-03-19T09:55:26.309Z,97370.06
2019-03-19T09:56:30.322Z,97366.38
2019-03-19T09:57:34.036Z,97369.00
2019-03-19T09:58:37.705Z,97362.80
2019-03-19T09:59:44.346Z,97363.60
2019-03-19T10:00:46.777Z,97369.45
2019-03-19T10:01:52.164Z,97365.88
2019-03-19T10:04:22.838Z,97355.56
2019-03-19T10:05:26.511Z,97361.56
2019-03-19T10:06:32.123Z,97363.56
2019-03-19T10:07:36.222Z,97362.06
2019-03-19T10:08:39.795Z,97365.77
2019-03-19T10:09:46.098Z,97361.50
2019-03-19T10:10:52.335Z,97364.46
2019-03-19T10:11:59.593Z,97356.95
2019-03-19T10:13:15.774Z,97355.26
2019-03-19T10:14:20.763Z,97349.11
2019-03-19T10:15:27.027Z,97359.45
2019-03-19T10:16:30.692Z,97354.63
2019-03-19T10:17:34.328Z,97351.69
2019-03-19T10:18:43.630Z,97349.03
2019-03-19T10:19:47.269Z,97343.77
2019-03-19T10:20:55.873Z,97339.81
2019-03-19T10:22:01.413Z,97336.50
2019-03-19T10:24:36.372Z,97338.35
2019-03-19T10:25:49.761Z,97338.72
2019-03-19T10:27:12.545Z,97335.98
2019-03-19T10:28:23.919Z,97335.05
2019-03-19T10:29:37.565Z,97335.00
2019-03-19T10:30:34.551Z,97328.45
2019-03-19T10:31:38.197Z,97330.92
2019-03-19T10:34:09.987Z,97330.91
2019-03-19T10:35:14.096Z,97326.78
2019-03-19T10:36:22.119Z,97330.41
2019-03-19T10:37:27.391Z,97329.47
2019-03-19T10:38:35.128Z,97323.70
2019-03-19T10:39:38.998Z,97323.10
2019-03-19T10:40:42.635Z,97328.31
2019-03-19T10:41:46.274Z,97321.47
2019-03-19T10:42:50.479Z,97313.00
2019-03-19T10:44:36.412Z,97318.59
2019-03-19T10:45:40.076Z,97317.19
2019-03-19T10:46:43.714Z,97311.53
2019-03-19T10:47:47.419Z,97316.13
2019-03-19T10:48:51.047Z,97309.52
2019-03-19T10:49:54.685Z,97304.04
2019-03-19T10:50:58.372Z,97305.64
2019-03-19T10:52:02.005Z,97303.37
2019-03-19T10:53:05.643Z,97302.55
2019-03-19T10:54:09.309Z,97297.41
2019-03-19T10:55:13.040Z,97300.62
2019-03-19T10:56:17.014Z,97298.59
2019-03-19T10:57:20.638Z,97299.46
2019-03-19T10:58:24.275Z,97293.98
2019-03-19T10:59:27.902Z,97285.53
2019-03-19T11:00:31.715Z,97290.92
2019-03-19T11:01:37.021Z,97286.38
2019-03-19T11:02:53.851Z,97281.05
2019-03-19T11:03:58.726Z,97284.46
2019-03-19T11:05:02.361Z,97287.84
2019-03-19T11:06:05.994Z,97277.38
2019-03-19T11:07:09.662Z,97274.34
2019-03-19T11:08:13.297Z,97275.02
2019-03-19T11:09:16.925Z,97280.43
2019-03-19T11:10:21.232Z,97280.31
2019-03-19T11:11:24.863Z,97277.40
2019-03-19T11:12:30.043Z,97278.06
2019-03-19T11:13:33.670Z,97272.87
2019-03-19T11:14:37.303Z,97265.91
2019-03-19T11:15:41.003Z,97268.86
2019-03-19T11:16:44.634Z,97266.30
2019-03-19T11:17:48.296Z,97260.73
2019-03-19T11:18:51.927Z,97265.53
2019-03-19T11:19:55.561Z,97266.63
2019-03-19T11:20:59.224Z,97259.55
2019-03-19T11:22:02.864Z,97256.35
2019-03-19T11:23:06.524Z,97257.05
2019-03-19T11:24:10.317Z,97259.47
2019-03-19T11:25:16.803Z,97254.48
2019-03-19T11:26:20.431Z,97255.84
2019-03-19T11:27:24.068Z,97251.68
2019-03-19T11:28:28.107Z,97251.70
2019-03-19T11:29:31.675Z,97250.25
2019-03-19T11:30:35.307Z,97241.70
2019-03-19T11:31:38.935Z,97241.66
2019-03-19T11:32:42.573Z,97237.23
2019-03-19T11:33:47.684Z,97238.35
2019-03-19T11:34:51.446Z,97237.17
2019-03-19T11:35:55.145Z,97237.77
2019-03-19T11:36:58.791Z,97233.07
2019-03-19T11:38:02.436Z,97234.49
2019-03-19T11:39:08.280Z,97234.45
2019-03-19T11:40:18.914Z,97230.03
2019-03-19T11:41:22.539Z,97225.02
2019-03-19T11:42:26.179Z,97222.50
2019-03-19T11:43:29.813Z,97224.27
2019-03-19T11:44:33.476Z,97216.39
2019-03-19T11:45:37.108Z,97217.34
2019-03-19T11:46:40.740Z,97222.37
2019-03-19T11:47:44.455Z,97216.02
2019-03-19T11:48:48.082Z,97214.21
2019-03-19T11:49:51.755Z,97217.69
2019-03-19T11:50:55.504Z,97213.14
2019-03-19T11:51:59.138Z,97209.63
2019-03-19T11:53:02.768Z,97211.52
2019-03-19T11:54:06.412Z,97217.41
2019-03-19T11:55:12.383Z,97213.77
2019-03-19T11:56:16.014Z,97212.51
2019-03-19T11:57:19.650Z,97211.47
2019-03-19T11:58:23.279Z,97210.64
2019-03-19T11:59:26.915Z,97207.08
2019-03-19T12:00:45.230Z,97202.00
2019-03-19T12:01:48.936Z,97206.48
2019-03-19T12:02:55.692Z,97195.02
2019-03-19T12:03:59.299Z,97206.48
2019-03-19T12:05:05.672Z,97194.38
2019-03-19T12:06:09.342Z,97196.51
2019-03-19T12:07:12.975Z,97194.33
2019-03-19T12:08:16.616Z,97191.92
2019-03-19T12:09:23.633Z,97185.00
2019-03-19T12:10:31.380Z,97193.82
2019-03-19T12:11:35.050Z,97186.58
2019-03-19T12:12:41.645Z,97188.17
2019-03-19T12:13:45.628Z,97178.39
2019-03-19T12:14:49.259Z,97184.43
2019-03-19T12:15:52.962Z,97185.64
2019-03-19T12:16:56.636Z,97185.11
2019-03-19T12:18:00.559Z,97182.78
2019-03-19T12:19:04.190Z,97184.70
2019-03-19T12:20:12.983Z,97182.02
2019-03-19T12:21:16.537Z,97185.12
2019-03-19T12:22:20.225Z,97183.38
2019-03-19T12:23:23.857Z,97181.12
2019-03-19T12:24:27.489Z,97179.33
2019-03-19T12:25:31.612Z,97182.55
2019-03-19T12:26:35.299Z,97178.61
2019-03-19T12:27:38.962Z,97178.44
2019-03-19T12:28:42.591Z,97175.50
2019-03-19T12:29:46.229Z,97171.52
2019-03-19T12:30:49.912Z,97180.23
2019-03-19T12:31:53.537Z,97176.21
2019-03-19T12:32:57.173Z,97174.67
2019-03-19T12:34:00.810Z,97166.64
2019-03-19T12:35:06.141Z,97168.68
2019-03-19T12:36:09.786Z,97165.36
2019-03-19T12:37:13.412Z,97167.67
2019-03-19T12:38:17.084Z,97160.49
2019-03-19T12:39:20.766Z,97163.04
2019-03-19T12:40:35.962Z,97157.29
2019-03-19T12:41:30.356Z,97156.63
2019-03-19T12:42:33.992Z,97161.34
2019-03-19T12:43:37.627Z,97159.15
2019-03-19T12:44:41.256Z,97151.63
2019-03-19T12:45:45.284Z,97153.95
2019-03-19T12:46:48.936Z,97156.95